Аэропорт: Пашковский. Краснодар

ICAO: URKK

METAR:
2019-12-12 11:30:00
URKK 121130Z 09004MPS 9999 OVC004 M00/M00 Q1017 R05R/290060 TEMPO 3000 BR BKN003 RMK QBB140 QFE760
METAR:
2019-12-12 10:53:00
TAF URKK 121053Z 1212/1312 05006G11MPS 5000 BR BKN011 TEMPO 1212/1306 09003G08MPS 1200 BR OVC002 FM130600 09007G12MPS 9999 BKN011 BKN020